sensor_id;sensor_type;location;lat;lon;timestamp;temperature;humidity
15997;DHT22;8103;51.340;12.326;2022-07-05T00:00:40;20.30;98.90
15997;DHT22;8103;51.340;12.326;2022-07-05T06:25:44;20.50;99.90
15997;DHT22;8103;51.340;12.326;2022-07-05T06:28:11;20.70;99.90
15997;DHT22;8103;51.340;12.326;2022-07-05T06:30:39;20.90;99.90
15997;DHT22;8103;51.340;12.326;2022-07-05T06:33:06;20.90;99.90
15997;DHT22;8103;51.340;12.326;2022-07-05T06:35:34;21.20;99.90
15997;DHT22;8103;51.340;12.326;2022-07-05T06:38:06;21.30;99.90
15997;DHT22;8103;51.340;12.326;2022-07-05T06:40:35;21.40;99.90
15997;DHT22;8103;51.340;12.326;2022-07-05T06:43:04;21.40;99.90
15997;DHT22;8103;51.340;12.326;2022-07-05T06:45:31;21.40;99.90
15997;DHT22;8103;51.340;12.326;2022-07-05T06:48:10;21.60;99.90
15997;DHT22;8103;51.340;12.326;2022-07-05T06:50:39;21.70;99.90
15997;DHT22;8103;51.340;12.326;2022-07-05T06:53:07;21.80;99.90
15997;DHT22;8103;51.340;12.326;2022-07-05T06:55:34;21.90;99.90
15997;DHT22;8103;51.340;12.326;2022-07-05T06:58:08;22.00;99.90
15997;DHT22;8103;51.340;12.326;2022-07-05T07:00:38;22.00;99.90
15997;DHT22;8103;51.340;12.326;2022-07-05T07:03:26;22.10;99.90
15997;DHT22;8103;51.340;12.326;2022-07-05T07:06:13;22.30;99.90
15997;DHT22;8103;51.340;12.326;2022-07-05T07:08:41;22.30;99.90
15997;DHT22;8103;51.340;12.326;2022-07-05T07:11:26;22.40;99.90
15997;DHT22;8103;51.340;12.326;2022-07-05T07:13:53;22.40;99.90
15997;DHT22;8103;51.340;12.326;2022-07-05T07:16:21;22.40;99.90
15997;DHT22;8103;51.340;12.326;2022-07-05T07:18:48;22.30;99.90
15997;DHT22;8103;51.340;12.326;2022-07-05T07:21:35;22.40;99.90
15997;DHT22;8103;51.340;12.326;2022-07-05T07:24:03;22.50;99.90
15997;DHT22;8103;51.340;12.326;2022-07-05T07:26:30;22.50;99.90
15997;DHT22;8103;51.340;12.326;2022-07-05T07:29:17;22.70;99.90
15997;DHT22;8103;51.340;12.326;2022-07-05T07:31:44;22.80;99.90
15997;DHT22;8103;51.340;12.326;2022-07-05T07:34:11;22.80;99.90
15997;DHT22;8103;51.340;12.326;2022-07-05T07:36:38;22.90;99.90
15997;DHT22;8103;51.340;12.326;2022-07-05T07:39:06;22.90;99.90
15997;DHT22;8103;51.340;12.326;2022-07-05T07:41:34;23.10;99.90
15997;DHT22;8103;51.340;12.326;2022-07-05T07:44:01;22.90;99.90
15997;DHT22;8103;51.340;12.326;2022-07-05T07:46:28;23.10;99.90
15997;DHT22;8103;51.340;12.326;2022-07-05T07:48:55;23.20;99.90
15997;DHT22;8103;51.340;12.326;2022-07-05T07:51:22;23.40;99.30
15997;DHT22;8103;51.340;12.326;2022-07-05T07:53:50;23.60;98.50
15997;DHT22;8103;51.340;12.326;2022-07-05T07:56:18;23.70;98.20
15997;DHT22;8103;51.340;12.326;2022-07-05T07:58:45;23.90;98.10
15997;DHT22;8103;51.340;12.326;2022-07-05T08:01:13;24.00;97.80
15997;DHT22;8103;51.340;12.326;2022-07-05T08:03:41;24.10;97.90
15997;DHT22;8103;51.340;12.326;2022-07-05T08:06:09;24.20;97.40
15997;DHT22;8103;51.340;12.326;2022-07-05T08:08:38;24.40;96.80
15997;DHT22;8103;51.340;12.326;2022-07-05T08:11:07;24.40;96.60
15997;DHT22;8103;51.340;12.326;2022-07-05T08:13:35;24.70;96.40
15997;DHT22;8103;51.340;12.326;2022-07-05T08:16:03;24.70;95.80
15997;DHT22;8103;51.340;12.326;2022-07-05T08:18:30;24.80;95.10
15997;DHT22;8103;51.340;12.326;2022-07-05T08:21:15;24.90;93.90
15997;DHT22;8103;51.340;12.326;2022-07-05T08:24:09;25.10;93.60
15997;DHT22;8103;51.340;12.326;2022-07-05T08:26:38;25.60;93.60
15997;DHT22;8103;51.340;12.326;2022-07-05T08:29:08;25.10;93.60
15997;DHT22;8103;51.340;12.326;2022-07-05T08:31:41;25.60;93.00
15997;DHT22;8103;51.340;12.326;2022-07-05T08:34:08;25.70;92.60
15997;DHT22;8103;51.340;12.326;2022-07-05T08:36:39;26.00;92.40
15997;DHT22;8103;51.340;12.326;2022-07-05T08:39:09;26.20;92.00
15997;DHT22;8103;51.340;12.326;2022-07-05T08:41:39;26.50;91.20
15997;DHT22;8103;51.340;12.326;2022-07-05T08:44:06;26.80;90.50
15997;DHT22;8103;51.340;12.326;2022-07-05T08:46:38;27.00;89.80
15997;DHT22;8103;51.340;12.326;2022-07-05T08:49:05;26.90;88.80
15997;DHT22;8103;51.340;12.326;2022-07-05T08:51:38;27.10;88.30
15997;DHT22;8103;51.340;12.326;2022-07-05T08:54:05;27.30;87.80
15997;DHT22;8103;51.340;12.326;2022-07-05T08:56:35;27.60;88.00
15997;DHT22;8103;51.340;12.326;2022-07-05T08:59:22;27.90;86.90
15997;DHT22;8103;51.340;12.326;2022-07-05T09:01:49;28.10;85.20
15997;DHT22;8103;51.340;12.326;2022-07-05T09:04:17;28.60;82.30
15997;DHT22;8103;51.340;12.326;2022-07-05T09:06:47;29.20;81.60
15997;DHT22;8103;51.340;12.326;2022-07-05T09:09:17;29.50;80.40
15997;DHT22;8103;51.340;12.326;2022-07-05T09:11:46;30.00;79.80
15997;DHT22;8103;51.340;12.326;2022-07-05T09:14:38;29.70;78.70
15997;DHT22;8103;51.340;12.326;2022-07-05T09:17:06;29.00;79.70
15997;DHT22;8103;51.340;12.326;2022-07-05T09:19:33;28.40;80.80
15997;DHT22;8103;51.340;12.326;2022-07-05T09:22:06;27.80;82.10
15997;DHT22;8103;51.340;12.326;2022-07-05T09:24:45;27.30;83.50
15997;DHT22;8103;51.340;12.326;2022-07-05T09:27:13;26.80;84.70
15997;DHT22;8103;51.340;12.326;2022-07-05T09:29:53;26.40;85.20
15997;DHT22;8103;51.340;12.326;2022-07-05T09:32:27;26.60;85.00
15997;DHT22;8103;51.340;12.326;2022-07-05T09:34:56;27.40;83.00
15997;DHT22;8103;51.340;12.326;2022-07-05T09:37:45;28.70;79.70
15997;DHT22;8103;51.340;12.326;2022-07-05T09:40:12;30.10;75.90
15997;DHT22;8103;51.340;12.326;2022-07-05T09:42:46;30.80;74.10
15997;DHT22;8103;51.340;12.326;2022-07-05T09:45:24;31.20;73.20
15997;DHT22;8103;51.340;12.326;2022-07-05T09:47:54;31.10;72.60
15997;DHT22;8103;51.340;12.326;2022-07-05T09:50:42;30.70;72.70
15997;DHT22;8103;51.340;12.326;2022-07-05T09:53:50;30.70;73.30
15997;DHT22;8103;51.340;12.326;2022-07-05T09:56:23;31.10;72.20
15997;DHT22;8103;51.340;12.326;2022-07-05T09:58:52;31.70;71.80
15997;DHT22;8103;51.340;12.326;2022-07-05T10:01:23;31.70;71.00
15997;DHT22;8103;51.340;12.326;2022-07-05T10:03:58;32.10;70.00
15997;DHT22;8103;51.340;12.326;2022-07-05T10:06:26;33.10;69.20
15997;DHT22;8103;51.340;12.326;2022-07-05T10:08:53;33.80;68.30
15997;DHT22;8103;51.340;12.326;2022-07-05T10:11:21;35.20;67.50
15997;DHT22;8103;51.340;12.326;2022-07-05T10:13:54;36.30;68.80
15997;DHT22;8103;51.340;12.326;2022-07-05T10:16:23;36.40;67.00
15997;DHT22;8103;51.340;12.326;2022-07-05T10:18:51;35.20;67.60
15997;DHT22;8103;51.340;12.326;2022-07-05T10:21:19;34.00;68.90
15997;DHT22;8103;51.340;12.326;2022-07-05T10:23:48;32.90;70.80
15997;DHT22;8103;51.340;12.326;2022-07-05T10:26:16;32.20;72.50
15997;DHT22;8103;51.340;12.326;2022-07-05T10:28:49;32.10;72.90
15997;DHT22;8103;51.340;12.326;2022-07-05T10:31:28;32.70;72.20
15997;DHT22;8103;51.340;12.326;2022-07-05T10:33:56;33.20;71.50
15997;DHT22;8103;51.340;12.326;2022-07-05T10:36:47;34.10;70.10
15997;DHT22;8103;51.340;12.326;2022-07-05T10:39:15;35.40;66.30
15997;DHT22;8103;51.340;12.326;2022-07-05T10:41:42;36.00;63.80
15997;DHT22;8103;51.340;12.326;2022-07-05T10:44:10;37.20;63.20
15997;DHT22;8103;51.340;12.326;2022-07-05T10:46:38;38.00;63.00
15997;DHT22;8103;51.340;12.326;2022-07-05T10:49:15;38.40;62.20
15997;DHT22;8103;51.340;12.326;2022-07-05T10:51:42;38.30;62.20
15997;DHT22;8103;51.340;12.326;2022-07-05T10:54:10;38.50;60.90
15997;DHT22;8103;51.340;12.326;2022-07-05T10:56:38;37.50;61.60
15997;DHT22;8103;51.340;12.326;2022-07-05T10:59:10;36.60;63.30
15997;DHT22;8103;51.340;12.326;2022-07-05T11:01:40;37.10;63.70
15997;DHT22;8103;51.340;12.326;2022-07-05T11:04:15;38.70;60.80
15997;DHT22;8103;51.340;12.326;2022-07-05T11:06:45;39.70;58.60
15997;DHT22;8103;51.340;12.326;2022-07-05T11:09:18;39.40;58.70
15997;DHT22;8103;51.340;12.326;2022-07-05T11:14:44;38.40;59.00
15997;DHT22;8103;51.340;12.326;2022-07-05T11:17:14;38.50;58.80
15997;DHT22;8103;51.340;12.326;2022-07-05T11:20:14;39.20;57.90
15997;DHT22;8103;51.340;12.326;2022-07-05T11:23:10;40.00;56.90
15997;DHT22;8103;51.340;12.326;2022-07-05T11:26:00;40.70;56.00
15997;DHT22;8103;51.340;12.326;2022-07-05T11:28:47;41.70;55.40
15997;DHT22;8103;51.340;12.326;2022-07-05T11:31:40;43.40;55.60
15997;DHT22;8103;51.340;12.326;2022-07-05T11:34:14;43.10;55.10
15997;DHT22;8103;51.340;12.326;2022-07-05T11:36:41;42.10;54.20
15997;DHT22;8103;51.340;12.326;2022-07-05T11:39:15;40.20;55.40
15997;DHT22;8103;51.340;12.326;2022-07-05T11:41:46;38.20;56.90
15997;DHT22;8103;51.340;12.326;2022-07-05T11:44:16;36.40;57.90
15997;DHT22;8103;51.340;12.326;2022-07-05T11:46:44;36.70;57.50
15997;DHT22;8103;51.340;12.326;2022-07-05T11:49:21;37.90;56.00
15997;DHT22;8103;51.340;12.326;2022-07-05T11:52:18;37.70;56.00
15997;DHT22;8103;51.340;12.326;2022-07-05T11:54:51;37.40;56.20
15997;DHT22;8103;51.340;12.326;2022-07-05T11:57:19;36.20;57.40
15997;DHT22;8103;51.340;12.326;2022-07-05T11:59:47;34.90;58.60
15997;DHT22;8103;51.340;12.326;2022-07-05T12:02:15;35.90;58.80
15997;DHT22;8103;51.340;12.326;2022-07-05T12:04:53;38.40;56.30
15997;DHT22;8103;51.340;12.326;2022-07-05T12:07:31;38.90;54.70
15997;DHT22;8103;51.340;12.326;2022-07-05T12:10:00;38.20;55.40
15997;DHT22;8103;51.340;12.326;2022-07-05T12:13:09;39.40;54.80
15997;DHT22;8103;51.340;12.326;2022-07-05T12:15:37;42.30;52.30
15997;DHT22;8103;51.340;12.326;2022-07-05T12:18:06;44.20;50.50
15997;DHT22;8103;51.340;12.326;2022-07-05T12:20:39;45.90;49.00
15997;DHT22;8103;51.340;12.326;2022-07-05T12:23:07;46.50;49.10
15997;DHT22;8103;51.340;12.326;2022-07-05T12:25:36;47.00;48.20
15997;DHT22;8103;51.340;12.326;2022-07-05T12:28:09;46.90;48.00
15997;DHT22;8103;51.340;12.326;2022-07-05T12:30:42;47.10;47.50
15997;DHT22;8103;51.340;12.326;2022-07-05T12:33:09;47.70;46.40
15997;DHT22;8103;51.340;12.326;2022-07-05T12:35:41;48.60;46.10
15997;DHT22;8103;51.340;12.326;2022-07-05T12:38:16;49.10;47.40
15997;DHT22;8103;51.340;12.326;2022-07-05T12:40:57;49.90;45.80
15997;DHT22;8103;51.340;12.326;2022-07-05T12:43:28;49.40;44.30
15997;DHT22;8103;51.340;12.326;2022-07-05T12:46:06;47.30;46.50
15997;DHT22;8103;51.340;12.326;2022-07-05T12:48:38;44.90;49.20
15997;DHT22;8103;51.340;12.326;2022-07-05T12:51:10;42.50;48.90
15997;DHT22;8103;51.340;12.326;2022-07-05T12:53:49;40.00;51.40
15997;DHT22;8103;51.340;12.326;2022-07-05T12:56:35;38.20;53.70
15997;DHT22;8103;51.340;12.326;2022-07-05T12:59:57;39.20;53.00
15997;DHT22;8103;51.340;12.326;2022-07-05T13:02:37;42.70;49.80
15997;DHT22;8103;51.340;12.326;2022-07-05T13:05:09;44.40;47.80
15997;DHT22;8103;51.340;12.326;2022-07-05T13:07:43;44.50;47.10
15997;DHT22;8103;51.340;12.326;2022-07-05T13:10:22;44.80;46.70
15997;DHT22;8103;51.340;12.326;2022-07-05T13:12:50;45.80;45.50
15997;DHT22;8103;51.340;12.326;2022-07-05T13:15:18;46.90;44.40
15997;DHT22;8103;51.340;12.326;2022-07-05T13:17:45;47.60;44.10
15997;DHT22;8103;51.340;12.326;2022-07-05T13:20:14;48.60;43.10
15997;DHT22;8103;51.340;12.326;2022-07-05T13:22:46;48.70;42.90
15997;DHT22;8103;51.340;12.326;2022-07-05T13:25:15;48.60;42.90
15997;DHT22;8103;51.340;12.326;2022-07-05T13:27:42;48.10;43.50
15997;DHT22;8103;51.340;12.326;2022-07-05T13:30:10;45.90;44.70
15997;DHT22;8103;51.340;12.326;2022-07-05T13:32:37;43.60;46.60
15997;DHT22;8103;51.340;12.326;2022-07-05T13:35:06;42.00;48.20
15997;DHT22;8103;51.340;12.326;2022-07-05T13:37:35;42.00;48.50
15997;DHT22;8103;51.340;12.326;2022-07-05T13:40:02;41.90;48.30
15997;DHT22;8103;51.340;12.326;2022-07-05T13:42:29;40.50;49.50
15997;DHT22;8103;51.340;12.326;2022-07-05T13:44:56;39.00;51.00
15997;DHT22;8103;51.340;12.326;2022-07-05T13:47:25;37.30;53.40
15997;DHT22;8103;51.340;12.326;2022-07-05T13:49:57;36.10;54.90
15997;DHT22;8103;51.340;12.326;2022-07-05T13:52:44;35.20;56.80
15997;DHT22;8103;51.340;12.326;2022-07-05T13:55:11;35.00;57.60
15997;DHT22;8103;51.340;12.326;2022-07-05T13:57:39;35.30;57.30
15997;DHT22;8103;51.340;12.326;2022-07-05T14:00:07;35.40;57.00
15997;DHT22;8103;51.340;12.326;2022-07-05T14:02:34;35.90;57.10
15997;DHT22;8103;51.340;12.326;2022-07-05T14:05:03;37.80;55.90
15997;DHT22;8103;51.340;12.326;2022-07-05T14:07:31;39.80;53.20
15997;DHT22;8103;51.340;12.326;2022-07-05T14:10:05;41.40;50.90
15997;DHT22;8103;51.340;12.326;2022-07-05T14:12:32;42.60;48.40
15997;DHT22;8103;51.340;12.326;2022-07-05T14:15:00;43.60;46.70
15997;DHT22;8103;51.340;12.326;2022-07-05T14:17:36;42.60;46.50
15997;DHT22;8103;51.340;12.326;2022-07-05T14:20:07;40.60;47.90
15997;DHT22;8103;51.340;12.326;2022-07-05T14:22:35;38.90;49.70
15997;DHT22;8103;51.340;12.326;2022-07-05T14:25:04;38.80;50.40
15997;DHT22;8103;51.340;12.326;2022-07-05T14:27:32;40.50;48.80
15997;DHT22;8103;51.340;12.326;2022-07-05T14:30:07;41.50;47.60
15997;DHT22;8103;51.340;12.326;2022-07-05T14:32:39;41.80;48.20
15997;DHT22;8103;51.340;12.326;2022-07-05T14:35:15;42.40;47.50
15997;DHT22;8103;51.340;12.326;2022-07-05T14:37:52;43.40;46.40
15997;DHT22;8103;51.340;12.326;2022-07-05T14:40:25;43.90;45.70
15997;DHT22;8103;51.340;12.326;2022-07-05T14:42:53;43.40;45.60
15997;DHT22;8103;51.340;12.326;2022-07-05T14:45:21;41.90;46.60
15997;DHT22;8103;51.340;12.326;2022-07-05T14:47:54;40.40;48.10
15997;DHT22;8103;51.340;12.326;2022-07-05T14:50:22;39.30;48.90
15997;DHT22;8103;51.340;12.326;2022-07-05T14:52:52;38.30;49.90
15997;DHT22;8103;51.340;12.326;2022-07-05T14:55:19;37.90;50.70
15997;DHT22;8103;51.340;12.326;2022-07-05T14:57:46;37.10;51.10
15997;DHT22;8103;51.340;12.326;2022-07-05T15:00:15;36.40;52.00
15997;DHT22;8103;51.340;12.326;2022-07-05T15:02:43;35.70;53.20
15997;DHT22;8103;51.340;12.326;2022-07-05T15:05:10;35.20;55.10
15997;DHT22;8103;51.340;12.326;2022-07-05T15:07:39;36.00;55.20
15997;DHT22;8103;51.340;12.326;2022-07-05T15:10:08;37.50;53.30
15997;DHT22;8103;51.340;12.326;2022-07-05T15:12:35;38.60;52.00
15997;DHT22;8103;51.340;12.326;2022-07-05T15:15:05;39.90;50.70
15997;DHT22;8103;51.340;12.326;2022-07-05T15:17:32;40.80;49.50
15997;DHT22;8103;51.340;12.326;2022-07-05T15:20:00;41.50;48.90
15997;DHT22;8103;51.340;12.326;2022-07-05T15:22:28;42.10;48.30
15997;DHT22;8103;51.340;12.326;2022-07-05T15:24:56;42.10;48.30
15997;DHT22;8103;51.340;12.326;2022-07-05T15:27:24;42.00;47.90
15997;DHT22;8103;51.340;12.326;2022-07-05T15:29:52;42.00;48.00
15997;DHT22;8103;51.340;12.326;2022-07-05T15:32:19;42.00;48.10
15997;DHT22;8103;51.340;12.326;2022-07-05T15:34:48;42.20;48.20
15997;DHT22;8103;51.340;12.326;2022-07-05T15:37:14;42.50;47.80
15997;DHT22;8103;51.340;12.326;2022-07-05T15:39:42;42.30;47.60
15997;DHT22;8103;51.340;12.326;2022-07-05T15:42:09;42.30;47.50
15997;DHT22;8103;51.340;12.326;2022-07-05T15:44:36;41.30;48.20
15997;DHT22;8103;51.340;12.326;2022-07-05T15:47:03;39.80;49.40
15997;DHT22;8103;51.340;12.326;2022-07-05T15:49:31;38.90;50.70
15997;DHT22;8103;51.340;12.326;2022-07-05T15:51:59;38.20;51.30
15997;DHT22;8103;51.340;12.326;2022-07-05T15:54:26;37.90;51.80
15997;DHT22;8103;51.340;12.326;2022-07-05T15:56:53;37.60;52.20
15997;DHT22;8103;51.340;12.326;2022-07-05T15:59:25;37.50;52.60
15997;DHT22;8103;51.340;12.326;2022-07-05T16:01:52;37.30;52.70
15997;DHT22;8103;51.340;12.326;2022-07-05T16:04:29;36.60;53.20
15997;DHT22;8103;51.340;12.326;2022-07-05T16:06:59;35.90;54.20
15997;DHT22;8103;51.340;12.326;2022-07-05T16:09:31;35.50;55.20
15997;DHT22;8103;51.340;12.326;2022-07-05T16:12:01;34.80;55.70
15997;DHT22;8103;51.340;12.326;2022-07-05T16:14:29;34.10;56.80
15997;DHT22;8103;51.340;12.326;2022-07-05T16:16:57;33.40;58.00
15997;DHT22;8103;51.340;12.326;2022-07-05T16:19:27;32.80;59.30
15997;DHT22;8103;51.340;12.326;2022-07-05T16:21:59;32.20;60.70
15997;DHT22;8103;51.340;12.326;2022-07-05T16:27:13;31.20;65.00
15997;DHT22;8103;51.340;12.326;2022-07-05T16:29:40;30.70;66.40
15997;DHT22;8103;51.340;12.326;2022-07-05T16:32:07;30.60;68.00
15997;DHT22;8103;51.340;12.326;2022-07-05T16:34:36;30.00;68.60
15997;DHT22;8103;51.340;12.326;2022-07-05T16:37:03;29.60;69.50
15997;DHT22;8103;51.340;12.326;2022-07-05T16:39:31;29.20;70.40
15997;DHT22;8103;51.340;12.326;2022-07-05T16:41:59;28.90;71.60
15997;DHT22;8103;51.340;12.326;2022-07-05T16:44:26;28.60;72.50
15997;DHT22;8103;51.340;12.326;2022-07-05T16:46:53;28.40;72.90
15997;DHT22;8103;51.340;12.326;2022-07-05T16:49:20;28.30;72.90
15997;DHT22;8103;51.340;12.326;2022-07-05T16:51:47;28.30;73.40
15997;DHT22;8103;51.340;12.326;2022-07-05T16:54:14;28.20;73.60
15997;DHT22;8103;51.340;12.326;2022-07-05T16:56:41;28.20;74.80
15997;DHT22;8103;51.340;12.326;2022-07-05T16:59:08;28.00;79.50
15997;DHT22;8103;51.340;12.326;2022-07-05T17:01:35;27.90;76.80
15997;DHT22;8103;51.340;12.326;2022-07-05T17:04:02;27.80;75.10
15997;DHT22;8103;51.340;12.326;2022-07-05T17:06:30;27.70;76.70
15997;DHT22;8103;51.340;12.326;2022-07-05T17:08:57;27.70;75.20
15997;DHT22;8103;51.340;12.326;2022-07-05T17:11:24;27.50;75.40
15997;DHT22;8103;51.340;12.326;2022-07-05T17:13:52;27.40;75.60
15997;DHT22;8103;51.340;12.326;2022-07-05T17:16:25;27.30;77.00
15997;DHT22;8103;51.340;12.326;2022-07-05T18:07:23;25.10;91.60
15997;DHT22;8103;51.340;12.326;2022-07-05T18:09:53;25.10;90.60
